createdAt,value
2018-11-25T00:01:23.156Z,90.70
2018-11-25T00:05:30.519Z,91.30
2018-11-25T00:09:38.567Z,91.80
2018-11-25T00:13:47.132Z,92.20
2018-11-25T00:17:55.618Z,91.90
2018-11-25T00:22:02.223Z,91.90
2018-11-25T00:26:09.135Z,91.60
2018-11-25T00:30:17.606Z,91.10
2018-11-25T00:34:28.830Z,91.20
2018-11-25T00:38:35.405Z,91.40
2018-11-25T00:42:44.270Z,90.90
2018-11-25T00:46:50.739Z,91.40
2018-11-25T00:50:58.307Z,91.50
2018-11-25T00:55:28.395Z,91.80
2018-11-25T00:59:35.046Z,90.70
2018-11-25T01:03:41.734Z,91.10
2018-11-25T01:07:48.515Z,91.80
2018-11-25T01:11:56.543Z,92.00
2018-11-25T01:16:04.155Z,91.30
2018-11-25T01:20:22.053Z,90.60
2018-11-25T01:24:28.952Z,90.20
2018-11-25T01:28:36.202Z,89.30
2018-11-25T01:32:44.037Z,90.30
2018-11-25T01:36:50.586Z,90.80
2018-11-25T01:40:58.369Z,90.50
2018-11-25T01:45:26.645Z,90.80
2018-11-25T01:49:33.395Z,91.60
2018-11-25T01:53:41.392Z,92.50
2018-11-25T01:57:49.024Z,92.60
2018-11-25T02:01:55.548Z,92.40
2018-11-25T02:06:03.461Z,91.60
2018-11-25T02:10:17.314Z,92.10
2018-11-25T02:14:23.994Z,91.90
2018-11-25T02:18:31.065Z,90.90
2018-11-25T02:22:37.811Z,90.50
2018-11-25T02:26:46.107Z,90.80
2018-11-25T02:30:53.676Z,90.40
2018-11-25T02:39:10.382Z,90.60
2018-11-25T02:43:17.841Z,90.60
2018-11-25T02:47:28.265Z,90.80
2018-11-25T02:51:34.763Z,90.70
2018-11-25T02:55:42.446Z,91.10
2018-11-25T02:59:49.882Z,90.30
2018-11-25T03:03:56.689Z,89.00
2018-11-25T03:08:03.835Z,88.20
2018-11-25T03:12:12.029Z,87.80
2018-11-25T03:16:21.656Z,88.30
2018-11-25T03:20:28.815Z,87.70
2018-11-25T03:28:43.045Z,89.60
2018-11-25T03:32:58.958Z,88.50
2018-11-25T03:37:06.159Z,87.70
2018-11-25T03:41:12.592Z,87.30
2018-11-25T03:45:18.577Z,87.80
2018-11-25T03:49:26.404Z,87.70
2018-11-25T03:53:34.128Z,87.30
2018-11-25T03:57:41.390Z,87.20
2018-11-25T04:01:48.210Z,86.20
2018-11-25T04:05:55.952Z,86.50
2018-11-25T04:10:05.191Z,87.20
2018-11-25T04:14:12.115Z,85.30
2018-11-25T04:18:20.124Z,85.70
2018-11-25T04:22:26.691Z,85.90
2018-11-25T04:26:34.236Z,86.10
2018-11-25T04:30:41.459Z,86.10
2018-11-25T04:34:49.111Z,86.70
2018-11-25T04:38:57.575Z,85.50
2018-11-25T04:43:06.639Z,85.60
2018-11-25T04:47:13.128Z,86.10
2018-11-25T04:51:22.739Z,85.80
2018-11-25T04:55:29.285Z,85.70
2018-11-25T04:59:37.814Z,86.50
2018-11-25T05:03:44.357Z,86.20
2018-11-25T05:07:51.033Z,87.10
2018-11-25T05:11:58.454Z,87.30
2018-11-25T05:16:06.598Z,87.60
2018-11-25T05:20:13.846Z,87.50
2018-11-25T05:24:44.120Z,87.60
2018-11-25T05:28:51.337Z,88.30
2018-11-25T05:32:58.672Z,88.50
2018-11-25T05:37:05.137Z,88.20
2018-11-25T05:41:11.930Z,87.60
2018-11-25T05:45:22.288Z,87.00
2018-11-25T05:49:36.391Z,86.70
2018-11-25T05:53:40.628Z,86.30
2018-11-25T05:57:47.390Z,86.10
2018-11-25T06:01:54.169Z,86.40
2018-11-25T06:06:01.757Z,85.80
2018-11-25T06:10:11.064Z,85.70
2018-11-25T06:14:18.822Z,85.00
2018-11-25T06:18:25.259Z,85.60
2018-11-25T06:22:33.316Z,86.30
2018-11-25T06:26:43.723Z,86.90
2018-11-25T06:30:50.542Z,85.40
2018-11-25T06:34:59.659Z,85.80
2018-11-25T06:39:09.219Z,85.50
2018-11-25T06:43:17.355Z,85.30
2018-11-25T06:47:26.298Z,86.10
2018-11-25T06:51:33.455Z,85.90
2018-11-25T06:56:03.307Z,85.20
2018-11-25T07:00:16.381Z,85.10
2018-11-25T07:04:23.452Z,85.80
2018-11-25T07:08:29.964Z,85.30
2018-11-25T07:12:37.571Z,84.60
2018-11-25T07:16:44.157Z,84.70
2018-11-25T07:20:50.853Z,85.40
2018-11-25T07:24:58.451Z,84.10
2018-11-25T07:29:05.747Z,84.30
2018-11-25T07:33:12.347Z,83.60
2018-11-25T07:37:19.533Z,84.10
2018-11-25T07:41:28.727Z,84.70
2018-11-25T07:49:42.384Z,84.70
2018-11-25T07:53:49.287Z,86.20
2018-11-25T07:57:57.348Z,85.10
2018-11-25T08:02:04.906Z,84.20
2018-11-25T08:06:11.781Z,84.80
2018-11-25T08:10:19.166Z,84.20
2018-11-25T08:14:29.252Z,84.40
2018-11-25T08:18:38.787Z,84.30
2018-11-25T08:22:45.354Z,83.60
2018-11-25T08:26:53.067Z,83.30
2018-11-25T08:31:01.588Z,83.40
2018-11-25T08:35:09.739Z,85.50
2018-11-25T08:39:17.875Z,84.10
2018-11-25T08:43:24.657Z,83.60
2018-11-25T08:47:31.200Z,84.20
2018-11-25T08:51:39.692Z,83.70
2018-11-25T08:55:46.136Z,83.20
2018-11-25T08:59:53.875Z,83.10
2018-11-25T09:04:22.519Z,84.80
2018-11-25T09:08:30.829Z,81.60
2018-11-25T09:12:40.866Z,81.90
2018-11-25T09:16:48.056Z,82.60
2018-11-25T09:20:57.233Z,81.50
2018-11-25T09:25:04.150Z,81.20
2018-11-25T09:29:10.699Z,80.80
2018-11-25T09:33:19.311Z,80.80
2018-11-25T09:37:28.234Z,81.90
2018-11-25T09:41:37.764Z,81.90
2018-11-25T09:45:47.103Z,82.60
2018-11-25T09:49:54.812Z,81.50
2018-11-25T09:54:01.342Z,81.40
2018-11-25T09:58:08.345Z,81.20
2018-11-25T10:02:16.531Z,82.90
2018-11-25T10:06:23.425Z,82.60
2018-11-25T10:10:30.055Z,82.20
2018-11-25T10:14:36.958Z,81.50
2018-11-25T10:18:44.102Z,80.80
2018-11-25T10:22:51.256Z,80.80
2018-11-25T10:26:57.812Z,80.30
2018-11-25T10:31:05.611Z,80.60
2018-11-25T10:35:12.259Z,80.30
2018-11-25T10:39:23.792Z,80.10
2018-11-25T10:43:30.343Z,79.40
2018-11-25T10:47:58.939Z,80.00
2018-11-25T10:52:06.554Z,80.30
2018-11-25T10:56:13.331Z,80.50
2018-11-25T11:00:43.737Z,80.80
2018-11-25T11:05:11.704Z,81.50
2018-11-25T11:09:20.583Z,83.40
2018-11-25T11:13:27.431Z,82.70
2018-11-25T11:17:34.316Z,82.10
2018-11-25T11:21:41.684Z,82.80
2018-11-25T11:25:48.226Z,83.30
2018-11-25T11:34:03.025Z,81.70
2018-11-25T11:38:11.065Z,81.00
2018-11-25T11:42:19.188Z,81.60
2018-11-25T11:46:25.842Z,81.70
2018-11-25T11:50:32.296Z,80.80
2018-11-25T11:54:40.487Z,80.80
2018-11-25T11:58:47.002Z,80.70
2018-11-25T12:02:54.830Z,80.40
2018-11-25T12:07:02.844Z,79.80
2018-11-25T12:11:11.816Z,79.80
2018-11-25T12:15:30.375Z,80.10
2018-11-25T12:19:39.116Z,80.70
2018-11-25T12:23:45.582Z,80.30
2018-11-25T12:27:52.864Z,80.20
2018-11-25T12:31:59.286Z,79.70
2018-11-25T12:36:06.093Z,80.50
2018-11-25T12:40:14.707Z,80.00
2018-11-25T12:44:21.948Z,79.90
2018-11-25T12:48:28.470Z,80.10
2018-11-25T12:52:36.400Z,79.50
2018-11-25T12:56:44.034Z,80.60
2018-11-25T13:00:53.587Z,81.00
2018-11-25T13:05:01.014Z,81.50
2018-11-25T13:09:09.813Z,81.50
2018-11-25T13:13:18.021Z,80.60
2018-11-25T13:17:25.705Z,80.00
2018-11-25T13:21:34.296Z,79.70
2018-11-25T13:25:41.196Z,79.90
2018-11-25T13:33:58.711Z,79.60
2018-11-25T13:38:05.180Z,79.40
2018-11-25T13:42:16.269Z,79.20
2018-11-25T13:46:20.640Z,80.20
2018-11-25T13:50:27.378Z,79.60
2018-11-25T13:54:33.883Z,80.70
2018-11-25T14:02:49.345Z,80.60
2018-11-25T14:06:56.672Z,80.00
2018-11-25T14:11:23.816Z,79.70
2018-11-25T14:15:30.550Z,80.80
2018-11-25T14:19:37.697Z,80.70
2018-11-25T14:23:44.814Z,80.20
2018-11-25T14:28:02.527Z,80.60
2018-11-25T14:32:09.480Z,80.60
2018-11-25T14:36:15.948Z,80.00
2018-11-25T14:40:24.332Z,80.50
2018-11-25T14:44:30.868Z,80.90
2018-11-25T14:48:38.129Z,80.50
2018-11-25T14:52:48.302Z,80.20
2018-11-25T14:56:56.533Z,80.90
2018-11-25T15:01:03.319Z,81.00
2018-11-25T15:05:14.032Z,81.30
2018-11-25T15:09:20.613Z,81.50
2018-11-25T15:13:28.951Z,81.00
2018-11-25T15:17:56.614Z,81.80
2018-11-25T15:22:06.408Z,81.40
2018-11-25T15:26:13.569Z,81.80
2018-11-25T15:30:20.615Z,80.70
2018-11-25T15:38:40.229Z,81.00
2018-11-25T15:42:48.068Z,80.90
2018-11-25T15:46:56.153Z,80.80
2018-11-25T15:51:02.719Z,81.50
2018-11-25T15:55:14.966Z,81.20
2018-11-25T15:59:24.849Z,81.70
2018-11-25T16:03:35.253Z,82.00
2018-11-25T16:07:43.209Z,82.10
2018-11-25T16:11:49.786Z,82.00
2018-11-25T16:15:57.730Z,82.50
2018-11-25T16:20:07.289Z,82.60
2018-11-25T16:24:13.802Z,83.20
2018-11-25T16:33:00.214Z,83.00
2018-11-25T16:37:07.070Z,82.80
2018-11-25T16:41:13.825Z,83.30
2018-11-25T16:45:21.131Z,83.90
2018-11-25T16:49:28.050Z,83.70
2018-11-25T16:53:34.803Z,84.20
2018-11-25T16:57:41.967Z,83.90
2018-11-25T17:01:50.686Z,83.20
2018-11-25T17:06:20.995Z,83.20
2018-11-25T17:10:33.308Z,82.30
2018-11-25T17:14:40.090Z,82.20
2018-11-25T17:18:46.639Z,82.30
2018-11-25T17:22:53.836Z,82.50
2018-11-25T17:27:03.612Z,82.40
2018-11-25T17:31:14.364Z,82.40
2018-11-25T17:35:30.995Z,84.80
2018-11-25T17:39:38.324Z,83.10
2018-11-25T17:43:44.989Z,83.30
2018-11-25T17:47:51.730Z,83.00
2018-11-25T17:51:58.240Z,82.60
2018-11-25T17:56:07.809Z,82.70
2018-11-25T18:00:42.019Z,83.40
2018-11-25T18:04:48.767Z,83.60
2018-11-25T18:08:55.355Z,83.20
2018-11-25T18:13:02.495Z,83.70
2018-11-25T18:17:09.871Z,82.80
2018-11-25T18:21:22.385Z,82.60
2018-11-25T18:25:28.934Z,82.50
2018-11-25T18:29:36.967Z,83.50
2018-11-25T18:33:43.592Z,83.30
2018-11-25T18:37:50.350Z,82.60
2018-11-25T18:41:57.175Z,82.70
2018-11-25T18:46:04.948Z,83.00
2018-11-25T18:50:15.489Z,83.60
2018-11-25T18:54:22.271Z,83.80
2018-11-25T18:58:28.853Z,83.70
2018-11-25T19:02:46.313Z,84.10
2018-11-25T19:06:53.040Z,84.90
2018-11-25T19:10:59.700Z,84.50
2018-11-25T19:15:09.697Z,84.80
2018-11-25T19:19:17.363Z,85.70
2018-11-25T19:23:26.309Z,85.50
2018-11-25T19:27:33.070Z,85.40
2018-11-25T19:31:39.596Z,85.20
2018-11-25T19:35:48.186Z,85.50
2018-11-25T19:39:55.535Z,85.80
2018-11-25T19:44:20.120Z,86.30
2018-11-25T19:48:26.615Z,87.00
2018-11-25T19:52:33.708Z,85.70
2018-11-25T19:56:40.346Z,84.90
2018-11-25T20:00:49.884Z,84.30
2018-11-25T20:04:56.522Z,84.90
2018-11-25T20:09:03.605Z,85.00
2018-11-25T20:13:12.044Z,85.20
2018-11-25T20:17:30.455Z,85.10
2018-11-25T20:21:54.196Z,84.50
2018-11-25T20:26:02.418Z,85.00
2018-11-25T20:30:14.505Z,85.80
2018-11-25T20:34:21.425Z,86.40
2018-11-25T20:39:02.851Z,87.10
2018-11-25T20:43:12.321Z,86.50
2018-11-25T20:47:19.805Z,86.10
2018-11-25T20:52:01.736Z,87.20
2018-11-25T20:56:08.283Z,88.20
2018-11-25T21:00:20.989Z,88.40
2018-11-25T21:04:27.694Z,89.00
2018-11-25T21:08:34.528Z,89.80
2018-11-25T21:12:41.235Z,90.10
2018-11-25T21:16:48.610Z,89.50
2018-11-25T21:20:56.177Z,89.50
2018-11-25T21:25:02.717Z,90.00
2018-11-25T21:29:44.860Z,89.10
2018-11-25T21:33:51.965Z,88.00
2018-11-25T21:37:59.455Z,88.30
2018-11-25T21:42:06.605Z,88.80
2018-11-25T21:46:13.222Z,87.60
2018-11-25T21:50:25.990Z,88.30
2018-11-25T21:54:32.594Z,87.10
2018-11-25T21:58:39.566Z,87.80
2018-11-25T22:02:46.114Z,88.80
2018-11-25T22:06:53.831Z,87.30
2018-11-25T22:11:00.338Z,86.80
2018-11-25T22:15:08.463Z,86.50
2018-11-25T22:19:50.147Z,86.80
2018-11-25T22:24:16.530Z,87.50
2018-11-25T22:28:24.568Z,87.70
2018-11-25T22:32:31.228Z,87.80
2018-11-25T22:36:37.692Z,88.40
2018-11-25T22:40:45.010Z,88.10
2018-11-25T22:45:08.441Z,87.70
2018-11-25T22:49:16.938Z,87.80
2018-11-25T22:53:26.292Z,86.90
2018-11-25T22:57:35.667Z,87.60
2018-11-25T23:02:00.070Z,87.30
2018-11-25T23:06:41.866Z,87.70
2018-11-25T23:10:48.354Z,87.50
2018-11-25T23:14:56.708Z,87.60
2018-11-25T23:19:03.341Z,87.90
2018-11-25T23:23:10.178Z,88.00
2018-11-25T23:27:16.759Z,88.20
2018-11-25T23:31:23.660Z,88.40
2018-11-25T23:35:34.224Z,87.90
2018-11-25T23:39:40.842Z,88.00
2018-11-25T23:43:47.317Z,88.10
2018-11-25T23:47:54.953Z,88.00
2018-11-25T23:52:01.496Z,88.20
2018-11-25T23:56:08.425Z,88.80
